sensor_id;sensor_type;location;lat;lon;timestamp;P1;durP1;ratioP1;P2;durP2;ratioP2
23702;SDS011;12030;50.376;8.762;2023-05-10T00:02:23;4.20;;;3.80;;
23702;SDS011;12030;50.376;8.762;2023-05-10T00:04:49;2.57;;;1.93;;
23702;SDS011;12030;50.376;8.762;2023-05-10T00:07:15;1.57;;;0.70;;
23702;SDS011;12030;50.376;8.762;2023-05-10T00:09:42;0.60;;;0.60;;
23702;SDS011;12030;50.376;8.762;2023-05-10T00:12:08;0.70;;;0.30;;
23702;SDS011;12030;50.376;8.762;2023-05-10T00:14:34;0.43;;;0.30;;
23702;SDS011;12030;50.376;8.762;2023-05-10T00:17:00;1.03;;;0.40;;
23702;SDS011;12030;50.376;8.762;2023-05-10T00:19:25;0.40;;;0.33;;
23702;SDS011;12030;50.376;8.762;2023-05-10T00:21:51;1.07;;;0.30;;
23702;SDS011;12030;50.376;8.762;2023-05-10T00:24:16;0.43;;;0.30;;
23702;SDS011;12030;50.376;8.762;2023-05-10T00:26:42;0.37;;;0.20;;
23702;SDS011;12030;50.376;8.762;2023-05-10T00:29:07;3.30;;;0.30;;
23702;SDS011;12030;50.376;8.762;2023-05-10T00:31:33;0.40;;;0.20;;
23702;SDS011;12030;50.376;8.762;2023-05-10T00:33:58;0.50;;;0.20;;
23702;SDS011;12030;50.376;8.762;2023-05-10T00:36:24;0.77;;;0.23;;
23702;SDS011;12030;50.376;8.762;2023-05-10T00:38:49;0.97;;;0.30;;
23702;SDS011;12030;50.376;8.762;2023-05-10T00:41:15;0.40;;;0.20;;
23702;SDS011;12030;50.376;8.762;2023-05-10T00:43:40;0.63;;;0.20;;
23702;SDS011;12030;50.376;8.762;2023-05-10T00:46:06;0.77;;;0.20;;
23702;SDS011;12030;50.376;8.762;2023-05-10T00:48:32;0.30;;;0.20;;
23702;SDS011;12030;50.376;8.762;2023-05-10T00:50:58;0.20;;;0.20;;
23702;SDS011;12030;50.376;8.762;2023-05-10T00:53:24;2.83;;;0.80;;
23702;SDS011;12030;50.376;8.762;2023-05-10T00:55:50;2.83;;;1.07;;
23702;SDS011;12030;50.376;8.762;2023-05-10T00:58:16;0.97;;;0.17;;
23702;SDS011;12030;50.376;8.762;2023-05-10T01:00:42;0.70;;;0.20;;
23702;SDS011;12030;50.376;8.762;2023-05-10T01:03:09;0.30;;;0.10;;
23702;SDS011;12030;50.376;8.762;2023-05-10T01:05:36;0.27;;;0.07;;
23702;SDS011;12030;50.376;8.762;2023-05-10T01:08:02;0.50;;;0.10;;
23702;SDS011;12030;50.376;8.762;2023-05-10T01:10:28;0.43;;;0.20;;
23702;SDS011;12030;50.376;8.762;2023-05-10T01:12:54;1.13;;;0.30;;
23702;SDS011;12030;50.376;8.762;2023-05-10T01:15:20;0.73;;;0.10;;
23702;SDS011;12030;50.376;8.762;2023-05-10T01:17:46;0.97;;;0.20;;
23702;SDS011;12030;50.376;8.762;2023-05-10T01:20:13;2.07;;;0.30;;
23702;SDS011;12030;50.376;8.762;2023-05-10T01:22:44;0.40;;;0.20;;
23702;SDS011;12030;50.376;8.762;2023-05-10T01:38:53;0.63;;;0.20;;
23702;SDS011;12030;50.376;8.762;2023-05-10T01:41:28;0.90;;;0.37;;
23702;SDS011;12030;50.376;8.762;2023-05-10T01:44:17;1.27;;;0.20;;
23702;SDS011;12030;50.376;8.762;2023-05-10T01:49:39;1.17;;;0.20;;
23702;SDS011;12030;50.376;8.762;2023-05-10T01:52:09;2.53;;;0.30;;
23702;SDS011;12030;50.376;8.762;2023-05-10T01:54:41;1.77;;;0.30;;
23702;SDS011;12030;50.376;8.762;2023-05-10T01:57:14;3.70;;;0.20;;
23702;SDS011;12030;50.376;8.762;2023-05-10T01:59:41;0.63;;;0.10;;
23702;SDS011;12030;50.376;8.762;2023-05-10T02:02:10;0.40;;;0.20;;
23702;SDS011;12030;50.376;8.762;2023-05-10T02:04:38;2.10;;;0.23;;
23702;SDS011;12030;50.376;8.762;2023-05-10T02:07:05;0.53;;;0.10;;
23702;SDS011;12030;50.376;8.762;2023-05-10T02:09:32;0.20;;;0.10;;
23702;SDS011;12030;50.376;8.762;2023-05-10T02:11:59;0.53;;;0.20;;
23702;SDS011;12030;50.376;8.762;2023-05-10T02:14:27;1.90;;;0.27;;
23702;SDS011;12030;50.376;8.762;2023-05-10T02:16:56;0.87;;;0.30;;
23702;SDS011;12030;50.376;8.762;2023-05-10T02:19:23;1.53;;;0.10;;
23702;SDS011;12030;50.376;8.762;2023-05-10T02:21:50;1.50;;;0.27;;
23702;SDS011;12030;50.376;8.762;2023-05-10T02:24:16;1.43;;;0.17;;
23702;SDS011;12030;50.376;8.762;2023-05-10T02:26:43;0.20;;;0.00;;
23702;SDS011;12030;50.376;8.762;2023-05-10T02:29:10;0.83;;;0.20;;
23702;SDS011;12030;50.376;8.762;2023-05-10T02:31:37;1.33;;;0.20;;
23702;SDS011;12030;50.376;8.762;2023-05-10T02:34:03;0.53;;;0.20;;
23702;SDS011;12030;50.376;8.762;2023-05-10T02:36:31;0.40;;;0.20;;
23702;SDS011;12030;50.376;8.762;2023-05-10T02:38:58;1.80;;;0.20;;
23702;SDS011;12030;50.376;8.762;2023-05-10T02:41:26;0.40;;;0.27;;
23702;SDS011;12030;50.376;8.762;2023-05-10T02:43:54;1.60;;;0.20;;
23702;SDS011;12030;50.376;8.762;2023-05-10T02:46:24;0.30;;;0.20;;
23702;SDS011;12030;50.376;8.762;2023-05-10T02:48:50;0.50;;;0.20;;
23702;SDS011;12030;50.376;8.762;2023-05-10T02:51:16;0.40;;;0.20;;
23702;SDS011;12030;50.376;8.762;2023-05-10T02:53:45;0.93;;;0.20;;
23702;SDS011;12030;50.376;8.762;2023-05-10T02:56:13;0.80;;;0.17;;
23702;SDS011;12030;50.376;8.762;2023-05-10T02:58:44;1.40;;;0.27;;
23702;SDS011;12030;50.376;8.762;2023-05-10T03:01:11;1.07;;;0.10;;
23702;SDS011;12030;50.376;8.762;2023-05-10T03:03:36;2.67;;;0.20;;
23702;SDS011;12030;50.376;8.762;2023-05-10T03:06:02;0.50;;;0.30;;
23702;SDS011;12030;50.376;8.762;2023-05-10T03:08:27;0.80;;;0.30;;
23702;SDS011;12030;50.376;8.762;2023-05-10T03:16:42;1.60;;;0.20;;
23702;SDS011;12030;50.376;8.762;2023-05-10T03:21:38;3.73;;;0.50;;
23702;SDS011;12030;50.376;8.762;2023-05-10T03:24:10;0.30;;;0.30;;
23702;SDS011;12030;50.376;8.762;2023-05-10T03:26:40;0.40;;;0.30;;
23702;SDS011;12030;50.376;8.762;2023-05-10T03:29:08;0.70;;;0.30;;
23702;SDS011;12030;50.376;8.762;2023-05-10T03:31:34;2.10;;;0.30;;
23702;SDS011;12030;50.376;8.762;2023-05-10T03:34:00;1.33;;;0.30;;
23702;SDS011;12030;50.376;8.762;2023-05-10T03:36:26;1.80;;;0.30;;
23702;SDS011;12030;50.376;8.762;2023-05-10T03:38:51;0.67;;;0.30;;
23702;SDS011;12030;50.376;8.762;2023-05-10T03:41:17;0.60;;;0.20;;
23702;SDS011;12030;50.376;8.762;2023-05-10T03:43:42;0.53;;;0.30;;
23702;SDS011;12030;50.376;8.762;2023-05-10T03:46:08;0.73;;;0.20;;
23702;SDS011;12030;50.376;8.762;2023-05-10T03:48:33;1.03;;;0.30;;
23702;SDS011;12030;50.376;8.762;2023-05-10T03:50:59;1.83;;;0.40;;
23702;SDS011;12030;50.376;8.762;2023-05-10T03:53:25;3.33;;;0.27;;
23702;SDS011;12030;50.376;8.762;2023-05-10T03:55:51;0.67;;;0.20;;
23702;SDS011;12030;50.376;8.762;2023-05-10T03:58:17;0.50;;;0.30;;
23702;SDS011;12030;50.376;8.762;2023-05-10T04:00:43;0.80;;;0.40;;
23702;SDS011;12030;50.376;8.762;2023-05-10T04:03:10;1.13;;;0.40;;
23702;SDS011;12030;50.376;8.762;2023-05-10T04:05:36;1.80;;;0.40;;
23702;SDS011;12030;50.376;8.762;2023-05-10T04:08:02;0.43;;;0.30;;
23702;SDS011;12030;50.376;8.762;2023-05-10T04:10:28;2.67;;;0.53;;
23702;SDS011;12030;50.376;8.762;2023-05-10T04:12:53;3.03;;;0.30;;
23702;SDS011;12030;50.376;8.762;2023-05-10T04:15:19;2.00;;;0.43;;
23702;SDS011;12030;50.376;8.762;2023-05-10T04:17:45;1.13;;;0.40;;
23702;SDS011;12030;50.376;8.762;2023-05-10T04:20:11;2.03;;;0.40;;
23702;SDS011;12030;50.376;8.762;2023-05-10T04:22:37;1.53;;;0.30;;
23702;SDS011;12030;50.376;8.762;2023-05-10T04:25:03;1.70;;;0.40;;
23702;SDS011;12030;50.376;8.762;2023-05-10T04:27:29;1.37;;;0.50;;
23702;SDS011;12030;50.376;8.762;2023-05-10T04:29:55;0.60;;;0.30;;
23702;SDS011;12030;50.376;8.762;2023-05-10T04:32:20;0.83;;;0.40;;
23702;SDS011;12030;50.376;8.762;2023-05-10T04:34:46;0.40;;;0.40;;
23702;SDS011;12030;50.376;8.762;2023-05-10T04:37:12;1.97;;;0.40;;
23702;SDS011;12030;50.376;8.762;2023-05-10T04:39:37;1.67;;;0.53;;
23702;SDS011;12030;50.376;8.762;2023-05-10T04:42:03;1.90;;;0.60;;
23702;SDS011;12030;50.376;8.762;2023-05-10T04:44:30;1.33;;;0.40;;
23702;SDS011;12030;50.376;8.762;2023-05-10T04:46:56;0.97;;;0.50;;
23702;SDS011;12030;50.376;8.762;2023-05-10T04:49:22;1.43;;;0.60;;
23702;SDS011;12030;50.376;8.762;2023-05-10T04:51:48;0.93;;;0.60;;
23702;SDS011;12030;50.376;8.762;2023-05-10T04:54:13;1.33;;;0.47;;
23702;SDS011;12030;50.376;8.762;2023-05-10T04:56:39;1.77;;;0.70;;
23702;SDS011;12030;50.376;8.762;2023-05-10T04:59:05;2.57;;;0.90;;
23702;SDS011;12030;50.376;8.762;2023-05-10T05:01:31;2.23;;;0.70;;
23702;SDS011;12030;50.376;8.762;2023-05-10T05:03:57;1.50;;;0.70;;
23702;SDS011;12030;50.376;8.762;2023-05-10T05:06:22;3.83;;;0.70;;
23702;SDS011;12030;50.376;8.762;2023-05-10T05:08:49;0.87;;;0.60;;
23702;SDS011;12030;50.376;8.762;2023-05-10T05:11:15;2.93;;;0.77;;
23702;SDS011;12030;50.376;8.762;2023-05-10T05:13:41;1.73;;;0.67;;
23702;SDS011;12030;50.376;8.762;2023-05-10T05:16:06;2.17;;;0.73;;
23702;SDS011;12030;50.376;8.762;2023-05-10T05:18:32;0.57;;;0.50;;
23702;SDS011;12030;50.376;8.762;2023-05-10T05:20:57;3.80;;;0.67;;
23702;SDS011;12030;50.376;8.762;2023-05-10T05:23:23;2.07;;;0.60;;
23702;SDS011;12030;50.376;8.762;2023-05-10T05:25:50;1.53;;;0.80;;
23702;SDS011;12030;50.376;8.762;2023-05-10T05:28:17;0.40;;;0.30;;
23702;SDS011;12030;50.376;8.762;2023-05-10T05:30:42;1.70;;;0.40;;
23702;SDS011;12030;50.376;8.762;2023-05-10T05:33:08;1.73;;;0.60;;
23702;SDS011;12030;50.376;8.762;2023-05-10T05:35:33;1.70;;;0.50;;
23702;SDS011;12030;50.376;8.762;2023-05-10T05:37:59;0.50;;;0.40;;
23702;SDS011;12030;50.376;8.762;2023-05-10T05:40:24;1.87;;;0.80;;
23702;SDS011;12030;50.376;8.762;2023-05-10T05:42:50;1.47;;;0.57;;
23702;SDS011;12030;50.376;8.762;2023-05-10T05:45:16;0.37;;;0.37;;
23702;SDS011;12030;50.376;8.762;2023-05-10T05:47:41;2.03;;;0.40;;
23702;SDS011;12030;50.376;8.762;2023-05-10T05:50:07;0.80;;;0.43;;
23702;SDS011;12030;50.376;8.762;2023-05-10T05:52:33;0.93;;;0.50;;
23702;SDS011;12030;50.376;8.762;2023-05-10T05:54:58;2.77;;;0.70;;
23702;SDS011;12030;50.376;8.762;2023-05-10T05:57:24;2.77;;;0.77;;
23702;SDS011;12030;50.376;8.762;2023-05-10T05:59:51;0.83;;;0.50;;
23702;SDS011;12030;50.376;8.762;2023-05-10T06:02:17;0.80;;;0.50;;
23702;SDS011;12030;50.376;8.762;2023-05-10T06:04:42;1.07;;;0.50;;
23702;SDS011;12030;50.376;8.762;2023-05-10T06:07:08;0.57;;;0.40;;
23702;SDS011;12030;50.376;8.762;2023-05-10T06:09:33;0.87;;;0.60;;
23702;SDS011;12030;50.376;8.762;2023-05-10T06:11:59;0.83;;;0.50;;
23702;SDS011;12030;50.376;8.762;2023-05-10T06:14:25;1.03;;;0.60;;
23702;SDS011;12030;50.376;8.762;2023-05-10T06:16:50;2.43;;;0.47;;
23702;SDS011;12030;50.376;8.762;2023-05-10T06:19:16;0.67;;;0.40;;
23702;SDS011;12030;50.376;8.762;2023-05-10T06:21:41;0.90;;;0.50;;
23702;SDS011;12030;50.376;8.762;2023-05-10T06:24:07;0.73;;;0.40;;
23702;SDS011;12030;50.376;8.762;2023-05-10T06:26:33;0.90;;;0.43;;
23702;SDS011;12030;50.376;8.762;2023-05-10T06:28:58;1.70;;;0.50;;
23702;SDS011;12030;50.376;8.762;2023-05-10T06:31:24;0.73;;;0.50;;
23702;SDS011;12030;50.376;8.762;2023-05-10T06:33:49;0.70;;;0.47;;
23702;SDS011;12030;50.376;8.762;2023-05-10T06:36:15;0.73;;;0.40;;
23702;SDS011;12030;50.376;8.762;2023-05-10T06:38:41;0.50;;;0.30;;
23702;SDS011;12030;50.376;8.762;2023-05-10T06:41:06;0.50;;;0.40;;
23702;SDS011;12030;50.376;8.762;2023-05-10T06:43:32;0.80;;;0.50;;
23702;SDS011;12030;50.376;8.762;2023-05-10T06:45:57;2.40;;;0.30;;
23702;SDS011;12030;50.376;8.762;2023-05-10T06:48:23;1.60;;;0.50;;
23702;SDS011;12030;50.376;8.762;2023-05-10T06:50:48;0.70;;;0.40;;
23702;SDS011;12030;50.376;8.762;2023-05-10T06:53:14;0.83;;;0.40;;
23702;SDS011;12030;50.376;8.762;2023-05-10T06:55:40;0.77;;;0.30;;
23702;SDS011;12030;50.376;8.762;2023-05-10T06:58:06;0.40;;;0.30;;
23702;SDS011;12030;50.376;8.762;2023-05-10T07:00:31;0.30;;;0.23;;
23702;SDS011;12030;50.376;8.762;2023-05-10T07:02:57;0.47;;;0.40;;
23702;SDS011;12030;50.376;8.762;2023-05-10T07:05:23;1.27;;;0.30;;
23702;SDS011;12030;50.376;8.762;2023-05-10T07:07:49;0.57;;;0.40;;
23702;SDS011;12030;50.376;8.762;2023-05-10T07:10:14;0.57;;;0.30;;
23702;SDS011;12030;50.376;8.762;2023-05-10T07:12:40;0.37;;;0.37;;
23702;SDS011;12030;50.376;8.762;2023-05-10T07:15:06;0.80;;;0.40;;
23702;SDS011;12030;50.376;8.762;2023-05-10T07:17:32;0.60;;;0.30;;
23702;SDS011;12030;50.376;8.762;2023-05-10T07:19:58;1.30;;;0.53;;
23702;SDS011;12030;50.376;8.762;2023-05-10T07:22:24;1.20;;;0.30;;
23702;SDS011;12030;50.376;8.762;2023-05-10T07:24:50;2.30;;;0.50;;
23702;SDS011;12030;50.376;8.762;2023-05-10T07:27:15;1.17;;;0.50;;
23702;SDS011;12030;50.376;8.762;2023-05-10T07:29:41;1.60;;;0.40;;
23702;SDS011;12030;50.376;8.762;2023-05-10T07:32:07;1.07;;;0.43;;
23702;SDS011;12030;50.376;8.762;2023-05-10T07:34:32;2.23;;;0.63;;
23702;SDS011;12030;50.376;8.762;2023-05-10T07:36:58;0.70;;;0.70;;
23702;SDS011;12030;50.376;8.762;2023-05-10T07:39:24;3.63;;;0.77;;
23702;SDS011;12030;50.376;8.762;2023-05-10T07:41:50;1.83;;;0.67;;
23702;SDS011;12030;50.376;8.762;2023-05-10T07:44:16;0.87;;;0.67;;
23702;SDS011;12030;50.376;8.762;2023-05-10T07:46:44;0.60;;;0.40;;
23702;SDS011;12030;50.376;8.762;2023-05-10T07:49:09;2.00;;;0.70;;
23702;SDS011;12030;50.376;8.762;2023-05-10T07:51:35;1.03;;;0.60;;
23702;SDS011;12030;50.376;8.762;2023-05-10T07:54:00;1.20;;;0.60;;
23702;SDS011;12030;50.376;8.762;2023-05-10T07:56:28;1.20;;;0.57;;
23702;SDS011;12030;50.376;8.762;2023-05-10T07:59:03;0.60;;;0.60;;
23702;SDS011;12030;50.376;8.762;2023-05-10T08:01:31;2.37;;;0.57;;
23702;SDS011;12030;50.376;8.762;2023-05-10T08:03:58;0.70;;;0.50;;
23702;SDS011;12030;50.376;8.762;2023-05-10T08:06:23;3.50;;;0.60;;
23702;SDS011;12030;50.376;8.762;2023-05-10T08:08:51;1.40;;;0.70;;
23702;SDS011;12030;50.376;8.762;2023-05-10T08:11:18;1.47;;;0.50;;
23702;SDS011;12030;50.376;8.762;2023-05-10T08:13:45;0.70;;;0.70;;
23702;SDS011;12030;50.376;8.762;2023-05-10T08:16:11;2.20;;;0.77;;
23702;SDS011;12030;50.376;8.762;2023-05-10T08:18:37;1.87;;;0.83;;
23702;SDS011;12030;50.376;8.762;2023-05-10T08:21:03;1.10;;;0.83;;
23702;SDS011;12030;50.376;8.762;2023-05-10T08:23:29;3.03;;;1.13;;
23702;SDS011;12030;50.376;8.762;2023-05-10T08:25:55;2.73;;;1.27;;
23702;SDS011;12030;50.376;8.762;2023-05-10T08:28:20;1.63;;;1.40;;
23702;SDS011;12030;50.376;8.762;2023-05-10T08:30:46;1.50;;;1.40;;
23702;SDS011;12030;50.376;8.762;2023-05-10T08:33:11;1.47;;;1.30;;
23702;SDS011;12030;50.376;8.762;2023-05-10T08:35:37;1.87;;;1.40;;
23702;SDS011;12030;50.376;8.762;2023-05-10T08:38:02;2.80;;;1.30;;
23702;SDS011;12030;50.376;8.762;2023-05-10T08:40:28;3.13;;;1.57;;
23702;SDS011;12030;50.376;8.762;2023-05-10T08:42:59;1.87;;;1.40;;
23702;SDS011;12030;50.376;8.762;2023-05-10T08:45:32;1.70;;;1.60;;
23702;SDS011;12030;50.376;8.762;2023-05-10T08:48:01;1.73;;;1.50;;
23702;SDS011;12030;50.376;8.762;2023-05-10T08:50:27;2.17;;;1.70;;
23702;SDS011;12030;50.376;8.762;2023-05-10T08:52:53;4.57;;;1.90;;
23702;SDS011;12030;50.376;8.762;2023-05-10T08:55:22;1.97;;;1.77;;
23702;SDS011;12030;50.376;8.762;2023-05-10T08:57:49;4.03;;;1.80;;
23702;SDS011;12030;50.376;8.762;2023-05-10T09:00:15;2.83;;;1.93;;
23702;SDS011;12030;50.376;8.762;2023-05-10T09:02:41;2.40;;;2.20;;
23702;SDS011;12030;50.376;8.762;2023-05-10T09:05:08;3.67;;;2.80;;
23702;SDS011;12030;50.376;8.762;2023-05-10T09:07:35;3.20;;;2.83;;
23702;SDS011;12030;50.376;8.762;2023-05-10T09:10:01;4.43;;;2.60;;
23702;SDS011;12030;50.376;8.762;2023-05-10T09:12:27;3.70;;;2.50;;
23702;SDS011;12030;50.376;8.762;2023-05-10T09:14:52;3.20;;;2.70;;
23702;SDS011;12030;50.376;8.762;2023-05-10T09:17:21;6.03;;;2.87;;
23702;SDS011;12030;50.376;8.762;2023-05-10T09:19:48;2.43;;;1.70;;
23702;SDS011;12030;50.376;8.762;2023-05-10T09:22:14;2.33;;;1.30;;
23702;SDS011;12030;50.376;8.762;2023-05-10T09:24:39;2.00;;;1.20;;
23702;SDS011;12030;50.376;8.762;2023-05-10T09:27:10;8.43;;;1.03;;
23702;SDS011;12030;50.376;8.762;2023-05-10T09:29:42;1.23;;;1.00;;
23702;SDS011;12030;50.376;8.762;2023-05-10T09:32:08;1.57;;;1.00;;
23702;SDS011;12030;50.376;8.762;2023-05-10T09:34:33;1.83;;;1.03;;
23702;SDS011;12030;50.376;8.762;2023-05-10T09:37:05;1.97;;;1.00;;
23702;SDS011;12030;50.376;8.762;2023-05-10T09:39:33;2.20;;;1.17;;
23702;SDS011;12030;50.376;8.762;2023-05-10T09:42:01;1.40;;;1.00;;
23702;SDS011;12030;50.376;8.762;2023-05-10T09:44:28;2.93;;;1.20;;
23702;SDS011;12030;50.376;8.762;2023-05-10T09:46:54;1.23;;;1.13;;
23702;SDS011;12030;50.376;8.762;2023-05-10T09:49:23;4.87;;;1.20;;
23702;SDS011;12030;50.376;8.762;2023-05-10T09:52:01;2.63;;;1.00;;
23702;SDS011;12030;50.376;8.762;2023-05-10T09:54:29;1.83;;;1.03;;
23702;SDS011;12030;50.376;8.762;2023-05-10T09:56:55;4.00;;;0.87;;
23702;SDS011;12030;50.376;8.762;2023-05-10T09:59:20;1.13;;;1.03;;
23702;SDS011;12030;50.376;8.762;2023-05-10T10:01:49;1.73;;;1.10;;
23702;SDS011;12030;50.376;8.762;2023-05-10T10:04:20;1.57;;;0.90;;
23702;SDS011;12030;50.376;8.762;2023-05-10T10:06:46;2.27;;;0.83;;
23702;SDS011;12030;50.376;8.762;2023-05-10T10:09:22;1.00;;;0.90;;
23702;SDS011;12030;50.376;8.762;2023-05-10T10:11:49;3.07;;;1.10;;
23702;SDS011;12030;50.376;8.762;2023-05-10T10:14:15;2.33;;;1.00;;
23702;SDS011;12030;50.376;8.762;2023-05-10T10:16:43;1.53;;;0.90;;
23702;SDS011;12030;50.376;8.762;2023-05-10T10:19:09;1.97;;;0.97;;
23702;SDS011;12030;50.376;8.762;2023-05-10T10:21:35;1.90;;;0.70;;
23702;SDS011;12030;50.376;8.762;2023-05-10T10:24:01;1.87;;;0.97;;
23702;SDS011;12030;50.376;8.762;2023-05-10T10:26:26;1.67;;;0.90;;
23702;SDS011;12030;50.376;8.762;2023-05-10T10:31:45;1.03;;;0.93;;
23702;SDS011;12030;50.376;8.762;2023-05-10T10:34:29;1.67;;;0.73;;
23702;SDS011;12030;50.376;8.762;2023-05-10T10:36:56;2.47;;;0.90;;
23702;SDS011;12030;50.376;8.762;2023-05-10T10:39:23;1.37;;;0.90;;
23702;SDS011;12030;50.376;8.762;2023-05-10T10:41:55;2.40;;;0.90;;
23702;SDS011;12030;50.376;8.762;2023-05-10T10:50:02;2.10;;;1.50;;
23702;SDS011;12030;50.376;8.762;2023-05-10T10:52:26;1.17;;;0.87;;
23702;SDS011;12030;50.376;8.762;2023-05-10T10:57:58;0.97;;;0.70;;
23702;SDS011;12030;50.376;8.762;2023-05-10T11:00:28;1.57;;;0.80;;
23702;SDS011;12030;50.376;8.762;2023-05-10T11:03:11;4.10;;;0.83;;
23702;SDS011;12030;50.376;8.762;2023-05-10T11:05:47;1.23;;;0.80;;
23702;SDS011;12030;50.376;8.762;2023-05-10T11:10:53;3.77;;;1.20;;
23702;SDS011;12030;50.376;8.762;2023-05-10T11:13:33;1.70;;;1.00;;
23702;SDS011;12030;50.376;8.762;2023-05-10T11:16:10;2.10;;;0.80;;
23702;SDS011;12030;50.376;8.762;2023-05-10T11:18:51;2.77;;;0.90;;
23702;SDS011;12030;50.376;8.762;2023-05-10T11:21:26;1.77;;;0.33;;
23702;SDS011;12030;50.376;8.762;2023-05-10T11:23:53;1.03;;;0.57;;
23702;SDS011;12030;50.376;8.762;2023-05-10T11:26:21;1.53;;;0.50;;
23702;SDS011;12030;50.376;8.762;2023-05-10T11:28:50;0.67;;;0.47;;
23702;SDS011;12030;50.376;8.762;2023-05-10T11:31:18;1.93;;;0.93;;
23702;SDS011;12030;50.376;8.762;2023-05-10T11:33:45;2.47;;;0.50;;
23702;SDS011;12030;50.376;8.762;2023-05-10T11:36:19;1.10;;;0.60;;
23702;SDS011;12030;50.376;8.762;2023-05-10T11:38:46;1.93;;;0.83;;
23702;SDS011;12030;50.376;8.762;2023-05-10T11:41:12;3.13;;;0.73;;
23702;SDS011;12030;50.376;8.762;2023-05-10T11:43:39;3.27;;;0.73;;
23702;SDS011;12030;50.376;8.762;2023-05-10T11:46:06;1.40;;;0.70;;
23702;SDS011;12030;50.376;8.762;2023-05-10T11:48:36;0.60;;;0.50;;
23702;SDS011;12030;50.376;8.762;2023-05-10T11:51:03;1.37;;;0.70;;
23702;SDS011;12030;50.376;8.762;2023-05-10T11:53:32;0.70;;;0.47;;
23702;SDS011;12030;50.376;8.762;2023-05-10T11:56:05;0.87;;;0.40;;
23702;SDS011;12030;50.376;8.762;2023-05-10T11:58:31;1.73;;;0.50;;
23702;SDS011;12030;50.376;8.762;2023-05-10T12:00:58;2.27;;;0.50;;
23702;SDS011;12030;50.376;8.762;2023-05-10T12:03:24;0.70;;;0.60;;
23702;SDS011;12030;50.376;8.762;2023-05-10T12:05:50;1.53;;;0.50;;
23702;SDS011;12030;50.376;8.762;2023-05-10T12:08:23;1.13;;;0.50;;
23702;SDS011;12030;50.376;8.762;2023-05-10T12:10:51;1.37;;;0.33;;
23702;SDS011;12030;50.376;8.762;2023-05-10T12:13:17;0.80;;;0.50;;
23702;SDS011;12030;50.376;8.762;2023-05-10T12:15:43;2.37;;;0.40;;
23702;SDS011;12030;50.376;8.762;2023-05-10T12:18:09;1.43;;;0.40;;
23702;SDS011;12030;50.376;8.762;2023-05-10T12:20:36;0.83;;;0.50;;
23702;SDS011;12030;50.376;8.762;2023-05-10T12:23:02;0.63;;;0.30;;
23702;SDS011;12030;50.376;8.762;2023-05-10T12:25:32;0.93;;;0.43;;
23702;SDS011;12030;50.376;8.762;2023-05-10T12:27:59;1.10;;;0.43;;
23702;SDS011;12030;50.376;8.762;2023-05-10T12:30:28;1.23;;;0.40;;
23702;SDS011;12030;50.376;8.762;2023-05-10T12:32:59;2.13;;;0.60;;
23702;SDS011;12030;50.376;8.762;2023-05-10T12:35:26;4.03;;;0.43;;
23702;SDS011;12030;50.376;8.762;2023-05-10T12:37:54;1.37;;;0.57;;
23702;SDS011;12030;50.376;8.762;2023-05-10T12:40:19;1.57;;;0.40;;
23702;SDS011;12030;50.376;8.762;2023-05-10T12:42:45;1.20;;;0.43;;
23702;SDS011;12030;50.376;8.762;2023-05-10T12:45:11;4.00;;;0.50;;
23702;SDS011;12030;50.376;8.762;2023-05-10T12:47:37;0.87;;;0.60;;
23702;SDS011;12030;50.376;8.762;2023-05-10T12:50:03;0.73;;;0.50;;
23702;SDS011;12030;50.376;8.762;2023-05-10T12:52:29;1.47;;;0.40;;
23702;SDS011;12030;50.376;8.762;2023-05-10T12:54:56;2.10;;;0.40;;
23702;SDS011;12030;50.376;8.762;2023-05-10T12:57:22;0.60;;;0.43;;
23702;SDS011;12030;50.376;8.762;2023-05-10T12:59:47;0.50;;;0.30;;
23702;SDS011;12030;50.376;8.762;2023-05-10T13:02:13;0.70;;;0.50;;
23702;SDS011;12030;50.376;8.762;2023-05-10T13:04:39;1.60;;;0.70;;
23702;SDS011;12030;50.376;8.762;2023-05-10T13:07:06;0.90;;;0.40;;
23702;SDS011;12030;50.376;8.762;2023-05-10T13:09:31;0.90;;;0.40;;
23702;SDS011;12030;50.376;8.762;2023-05-10T13:11:57;1.57;;;0.30;;
23702;SDS011;12030;50.376;8.762;2023-05-10T13:14:24;1.80;;;0.30;;
23702;SDS011;12030;50.376;8.762;2023-05-10T13:16:50;1.50;;;0.50;;
23702;SDS011;12030;50.376;8.762;2023-05-10T13:19:16;2.00;;;0.40;;
23702;SDS011;12030;50.376;8.762;2023-05-10T13:21:42;1.70;;;0.47;;
23702;SDS011;12030;50.376;8.762;2023-05-10T13:24:09;3.80;;;0.50;;
23702;SDS011;12030;50.376;8.762;2023-05-10T13:26:35;1.50;;;0.60;;
23702;SDS011;12030;50.376;8.762;2023-05-10T13:29:01;1.23;;;0.60;;
23702;SDS011;12030;50.376;8.762;2023-05-10T13:31:27;2.90;;;1.00;;
23702;SDS011;12030;50.376;8.762;2023-05-10T13:33:53;1.03;;;0.67;;
23702;SDS011;12030;50.376;8.762;2023-05-10T13:36:19;0.90;;;0.50;;
23702;SDS011;12030;50.376;8.762;2023-05-10T13:38:44;1.93;;;0.50;;
23702;SDS011;12030;50.376;8.762;2023-05-10T13:41:10;1.57;;;0.70;;
23702;SDS011;12030;50.376;8.762;2023-05-10T13:43:36;1.03;;;0.53;;
23702;SDS011;12030;50.376;8.762;2023-05-10T13:46:01;2.60;;;0.70;;
23702;SDS011;12030;50.376;8.762;2023-05-10T13:48:27;1.20;;;0.67;;
23702;SDS011;12030;50.376;8.762;2023-05-10T13:50:53;2.03;;;0.90;;
23702;SDS011;12030;50.376;8.762;2023-05-10T13:53:19;1.80;;;0.80;;
23702;SDS011;12030;50.376;8.762;2023-05-10T13:55:44;1.33;;;0.80;;
23702;SDS011;12030;50.376;8.762;2023-05-10T13:58:10;1.77;;;0.70;;
23702;SDS011;12030;50.376;8.762;2023-05-10T14:00:35;6.87;;;5.50;;
23702;SDS011;12030;50.376;8.762;2023-05-10T14:03:01;2.20;;;1.10;;
23702;SDS011;12030;50.376;8.762;2023-05-10T14:05:27;1.37;;;1.03;;
23702;SDS011;12030;50.376;8.762;2023-05-10T14:07:52;4.03;;;2.17;;
23702;SDS011;12030;50.376;8.762;2023-05-10T14:10:18;3.10;;;1.83;;
23702;SDS011;12030;50.376;8.762;2023-05-10T14:12:44;1.93;;;0.90;;
23702;SDS011;12030;50.376;8.762;2023-05-10T14:15:09;2.00;;;1.40;;
23702;SDS011;12030;50.376;8.762;2023-05-10T14:17:36;1.47;;;1.10;;
23702;SDS011;12030;50.376;8.762;2023-05-10T14:20:02;2.47;;;1.23;;
23702;SDS011;12030;50.376;8.762;2023-05-10T14:22:28;2.93;;;1.63;;
23702;SDS011;12030;50.376;8.762;2023-05-10T14:24:54;3.20;;;1.53;;
23702;SDS011;12030;50.376;8.762;2023-05-10T14:27:20;1.60;;;1.10;;
23702;SDS011;12030;50.376;8.762;2023-05-10T14:29:46;1.33;;;1.10;;
23702;SDS011;12030;50.376;8.762;2023-05-10T14:32:12;1.27;;;1.00;;
23702;SDS011;12030;50.376;8.762;2023-05-10T14:34:38;1.83;;;0.80;;
23702;SDS011;12030;50.376;8.762;2023-05-10T14:37:03;3.53;;;1.50;;
23702;SDS011;12030;50.376;8.762;2023-05-10T14:39:29;3.10;;;1.20;;
23702;SDS011;12030;50.376;8.762;2023-05-10T14:41:55;1.90;;;1.00;;
23702;SDS011;12030;50.376;8.762;2023-05-10T14:44:21;2.20;;;0.80;;
23702;SDS011;12030;50.376;8.762;2023-05-10T14:46:47;4.37;;;1.40;;
23702;SDS011;12030;50.376;8.762;2023-05-10T14:49:13;2.80;;;1.30;;
23702;SDS011;12030;50.376;8.762;2023-05-10T14:51:39;4.83;;;2.20;;
23702;SDS011;12030;50.376;8.762;2023-05-10T14:54:04;3.87;;;2.30;;
23702;SDS011;12030;50.376;8.762;2023-05-10T14:56:30;2.20;;;1.10;;
23702;SDS011;12030;50.376;8.762;2023-05-10T14:58:56;2.00;;;1.03;;
23702;SDS011;12030;50.376;8.762;2023-05-10T15:01:21;1.97;;;1.17;;
23702;SDS011;12030;50.376;8.762;2023-05-10T15:03:47;1.23;;;1.00;;
23702;SDS011;12030;50.376;8.762;2023-05-10T15:06:13;1.67;;;0.90;;
23702;SDS011;12030;50.376;8.762;2023-05-10T15:08:40;2.13;;;0.93;;
23702;SDS011;12030;50.376;8.762;2023-05-10T15:11:06;5.53;;;1.10;;
23702;SDS011;12030;50.376;8.762;2023-05-10T15:13:31;2.10;;;0.80;;
23702;SDS011;12030;50.376;8.762;2023-05-10T15:15:57;2.50;;;1.07;;
23702;SDS011;12030;50.376;8.762;2023-05-10T15:18:22;1.10;;;1.00;;
23702;SDS011;12030;50.376;8.762;2023-05-10T15:20:48;0.70;;;0.70;;
23702;SDS011;12030;50.376;8.762;2023-05-10T15:23:13;1.23;;;0.70;;
23702;SDS011;12030;50.376;8.762;2023-05-10T15:25:39;0.60;;;0.40;;